createdAt,value
2022-10-22T00:00:53.977Z,15.3
2022-10-22T00:06:30.168Z,15.3
2022-10-22T00:12:29.850Z,15.4
2022-10-22T00:18:30.257Z,15.4
2022-10-22T00:24:30.533Z,15.3
2022-10-22T00:30:49.041Z,15.2
2022-10-22T00:36:31.026Z,15.2
2022-10-22T00:42:29.945Z,15.2
2022-10-22T00:48:29.695Z,15.2
2022-10-22T00:54:31.799Z,15.2
2022-10-22T01:00:50.436Z,15.3
2022-10-22T01:06:31.031Z,15.2
2022-10-22T01:12:29.628Z,15.3
2022-10-22T01:18:29.539Z,15.3
2022-10-22T01:24:29.491Z,15.2
2022-10-22T01:30:29.728Z,15.1
2022-10-22T01:36:29.956Z,15.1
2022-10-22T01:42:29.899Z,15.1
2022-10-22T01:48:30.370Z,15.1
2022-10-22T01:54:29.510Z,15.1
2022-10-22T02:00:29.874Z,15.1
2022-10-22T02:06:29.644Z,15.2
2022-10-22T02:12:30.068Z,15.2
2022-10-22T02:18:29.948Z,15.1
2022-10-22T02:24:29.949Z,15.1
2022-10-22T02:30:37.866Z,15.1
2022-10-22T02:36:30.478Z,15.1
2022-10-22T02:42:29.807Z,15.1
2022-10-22T02:48:30.170Z,15
2022-10-22T02:54:30.414Z,15.1
2022-10-22T03:00:47.507Z,15
2022-10-22T03:06:30.245Z,15.1
2022-10-22T03:12:30.017Z,15.1
2022-10-22T03:18:29.973Z,15
2022-10-22T03:24:31.690Z,15
2022-10-22T03:30:44.570Z,14.9
2022-10-22T03:36:30.811Z,14.9
2022-10-22T03:42:30.699Z,15
2022-10-22T03:48:29.965Z,15
2022-10-22T03:54:30.120Z,15
2022-10-22T04:00:42.976Z,15
2022-10-22T04:06:30.062Z,14.9
2022-10-22T04:12:30.052Z,14.9
2022-10-22T04:18:30.061Z,14.9
2022-10-22T04:24:30.543Z,14.9
2022-10-22T04:30:43.186Z,15
2022-10-22T04:36:30.777Z,14.9
2022-10-22T04:42:29.807Z,14.9
2022-10-22T04:48:30.444Z,14.9
2022-10-22T04:54:32.994Z,14.9
2022-10-22T05:00:41.892Z,14.9
2022-10-22T05:06:30.695Z,14.9
2022-10-22T05:12:30.091Z,14.8
2022-10-22T05:18:30.035Z,14.8
2022-10-22T05:24:30.066Z,14.7
2022-10-22T05:30:41.617Z,14.7
2022-10-22T05:36:30.281Z,14.7
2022-10-22T05:42:30.285Z,14.7
2022-10-22T05:48:29.960Z,14.5
2022-10-22T05:54:30.164Z,14.5
2022-10-22T06:00:44.650Z,14.6
2022-10-22T06:06:30.547Z,14.5
2022-10-22T06:12:29.915Z,14.5
2022-10-22T06:18:29.865Z,14.5
2022-10-22T06:24:30.521Z,14.5
2022-10-22T06:30:48.496Z,14.6
2022-10-22T06:36:30.257Z,14.6
2022-10-22T06:42:30.124Z,14.7
2022-10-22T06:48:30.037Z,14.8
2022-10-22T06:54:30.650Z,14.9
2022-10-22T07:00:49.974Z,14.9
2022-10-22T07:06:30.353Z,15
2022-10-22T07:12:30.541Z,14.9
2022-10-22T07:18:29.983Z,14.9
2022-10-22T07:24:30.992Z,15.1
2022-10-22T07:30:45.998Z,15.1
2022-10-22T07:36:30.454Z,15.1
2022-10-22T07:48:29.897Z,15.3
2022-10-22T07:54:30.027Z,15.4
2022-10-22T08:00:53.011Z,15.4
2022-10-22T08:06:30.755Z,15.7
2022-10-22T08:12:30.706Z,15.9
2022-10-22T08:18:29.953Z,16
2022-10-22T08:24:29.926Z,16.2
2022-10-22T08:30:47.873Z,16.4
2022-10-22T08:36:29.999Z,16.5
2022-10-22T08:42:30.222Z,16.8
2022-10-22T08:48:29.701Z,16.9
2022-10-22T08:54:29.876Z,17
2022-10-22T09:00:35.554Z,17
2022-10-22T09:06:30.146Z,17
2022-10-22T09:12:30.104Z,17.1
2022-10-22T09:18:29.983Z,17
2022-10-22T09:24:32.175Z,17.1
2022-10-22T09:30:38.032Z,17
2022-10-22T09:36:30.383Z,17.1
2022-10-22T09:42:30.611Z,17.2
2022-10-22T09:48:30.569Z,17.2
2022-10-22T09:54:30.227Z,17.3
2022-10-22T10:00:41.209Z,17.4
2022-10-22T10:06:29.969Z,17.5
2022-10-22T10:12:30.742Z,17.7
2022-10-22T10:18:29.654Z,17.8
2022-10-22T10:24:29.669Z,17.9
2022-10-22T10:30:29.921Z,18.1
2022-10-22T10:36:29.772Z,18.1
2022-10-22T10:42:29.732Z,18.1
2022-10-22T10:48:29.603Z,18.1
2022-10-22T10:54:29.843Z,18.3
2022-10-22T11:00:29.684Z,18.3
2022-10-22T11:06:29.637Z,18.4
2022-10-22T11:12:30.257Z,18.4
2022-10-22T11:18:29.761Z,18.5
2022-10-22T11:24:29.731Z,18.6
2022-10-22T11:30:32.826Z,18.5
2022-10-22T11:42:30.242Z,18.4
2022-10-22T11:48:29.867Z,18.4
2022-10-22T11:54:29.845Z,18.4
2022-10-22T12:00:29.803Z,18.3
2022-10-22T12:06:29.667Z,18.1
2022-10-22T12:12:29.806Z,18
2022-10-22T12:18:29.769Z,18
2022-10-22T12:24:31.103Z,18.3
2022-10-22T12:30:36.436Z,18.5
2022-10-22T12:36:29.932Z,18.6
2022-10-22T12:42:31.052Z,18.7
2022-10-22T12:48:30.077Z,19.1
2022-10-22T12:54:31.103Z,20.2
2022-10-22T13:00:43.247Z,20.2
2022-10-22T13:06:30.140Z,20.4
2022-10-22T13:12:30.030Z,20.4
2022-10-22T13:18:29.787Z,20.7
2022-10-22T13:24:30.302Z,20.7
2022-10-22T13:30:41.257Z,20.6
2022-10-22T13:36:29.981Z,20.6
2022-10-22T13:42:30.139Z,20.9
2022-10-22T13:48:29.923Z,22
2022-10-22T13:54:29.982Z,22.6
2022-10-22T14:00:42.482Z,22.9
2022-10-22T14:06:30.578Z,23.2
2022-10-22T14:12:31.010Z,22.8
2022-10-22T14:18:33.908Z,22.4
2022-10-22T14:24:31.596Z,22.1
2022-10-22T14:30:51.797Z,22
2022-10-22T14:36:30.784Z,21.6
2022-10-22T14:42:30.164Z,21.4
2022-10-22T14:48:31.264Z,20.9
2022-10-22T14:54:30.475Z,20.7
2022-10-22T15:00:50.036Z,21.2
2022-10-22T15:06:39.713Z,21.5
2022-10-22T15:12:31.931Z,22.2
2022-10-22T15:18:30.687Z,21.9
2022-10-22T15:24:30.743Z,21.6
2022-10-22T15:30:49.811Z,21
2022-10-22T15:36:31.799Z,20.7
2022-10-22T15:42:32.895Z,20.1
2022-10-22T15:48:31.288Z,19.8
2022-10-22T15:54:31.205Z,19.6
2022-10-22T16:00:49.363Z,19.3
2022-10-22T16:06:31.296Z,18.9
2022-10-22T16:12:31.033Z,18.7
2022-10-22T16:18:31.086Z,18.6
2022-10-22T16:24:30.888Z,18.5
2022-10-22T16:30:48.621Z,18.4
2022-10-22T16:36:33.627Z,18.3
2022-10-22T16:42:30.659Z,18.2
2022-10-22T16:48:30.379Z,17.9
2022-10-22T16:54:30.945Z,17.8
2022-10-22T17:00:45.392Z,17.8
2022-10-22T17:06:30.454Z,17.6
2022-10-22T17:12:32.171Z,17.6
2022-10-22T17:18:30.756Z,17.5
2022-10-22T17:24:30.161Z,17.4
2022-10-22T17:30:51.582Z,17.3
2022-10-22T17:36:38.901Z,17.2
2022-10-22T17:42:31.856Z,17.1
2022-10-22T17:48:30.909Z,17
2022-10-22T17:54:30.189Z,17
2022-10-22T18:00:49.393Z,16.9
2022-10-22T18:06:29.999Z,16.9
2022-10-22T18:12:30.202Z,16.9
2022-10-22T18:18:30.917Z,16.8
2022-10-22T18:24:31.208Z,16.7
2022-10-22T18:30:52.299Z,16.6
2022-10-22T18:36:30.254Z,16.4
2022-10-22T18:42:32.932Z,16.4
2022-10-22T18:48:38.987Z,16.4
2022-10-22T18:54:30.721Z,16.2
2022-10-22T19:00:42.378Z,16.3
2022-10-22T19:06:34.386Z,16.2
2022-10-22T19:12:31.439Z,16.2
2022-10-22T19:18:30.796Z,16.1
2022-10-22T19:24:31.292Z,16
2022-10-22T19:30:53.469Z,16
2022-10-22T19:36:31.398Z,16
2022-10-22T19:42:31.900Z,15.9
2022-10-22T19:48:34.536Z,15.9
2022-10-22T19:54:33.039Z,15.9
2022-10-22T20:00:51.247Z,15.7
2022-10-22T20:06:33.806Z,15.7
2022-10-22T20:12:32.771Z,15.7
2022-10-22T20:18:32.175Z,15.7
2022-10-22T20:24:33.077Z,15.6
2022-10-22T20:30:41.072Z,15.6
2022-10-22T20:36:31.206Z,15.6
2022-10-22T20:42:30.067Z,15.5
2022-10-22T20:48:34.284Z,15.5
2022-10-22T20:54:30.979Z,15.5
2022-10-22T21:00:53.290Z,15.5
2022-10-22T21:06:30.674Z,15.4
2022-10-22T21:12:30.131Z,15.4
2022-10-22T21:18:30.693Z,15.3
2022-10-22T21:24:30.657Z,15.2
2022-10-22T21:30:46.457Z,15.3
2022-10-22T21:36:33.971Z,15.3
2022-10-22T21:42:30.463Z,15.3
2022-10-22T21:48:42.383Z,15.2
2022-10-22T21:54:40.601Z,15.1
2022-10-22T22:00:48.664Z,15.2
2022-10-22T22:06:34.237Z,15.1
2022-10-22T22:12:35.534Z,15.1
2022-10-22T22:18:38.378Z,15.1
2022-10-22T22:24:30.497Z,15
2022-10-22T22:30:47.776Z,14.9
2022-10-22T22:36:30.445Z,14.9
2022-10-22T22:42:30.621Z,14.9
2022-10-22T22:48:37.973Z,14.9
2022-10-22T22:54:32.922Z,14.7
2022-10-22T23:00:42.488Z,14.7
2022-10-22T23:06:30.266Z,14.6
2022-10-22T23:12:35.475Z,14.6
2022-10-22T23:18:33.972Z,14.6
2022-10-22T23:24:33.389Z,14.6
2022-10-22T23:30:50.163Z,14.5
2022-10-22T23:36:35.485Z,14.4
2022-10-22T23:42:35.126Z,14.5
2022-10-22T23:48:37.474Z,14.4
2022-10-22T23:54:34.400Z,14.4
